Terminal Aerodrome Forecast
Issued by NWS Twin Cities, MN

Home | Current Version | Previous Version | Text Only | Print | Product List | Glossary Off
Versions: 1 2 3 4 5 6 7 8 9 10 11 12 13 14 15 16 17 18 19 20 21 22 23 24 25

000
FTUS43 KMPX 220900 AAA
TAFEAU
TAF AMD
KEAU 220913Z 2209/2306 00000KT 5SM BR SCT020
     FM221000 00000KT 2SM BR SCT007 BKN020
     FM221100 VRB03KT 1SM BR OVC005
     FM221500 VRB03KT P6SM OVC008
     FM221700 01004KT P6SM BKN016
     FM222200 04004KT P6SM SCT025=

USA.gov is the U.S. government's official web portal to all federal, state and local government web resources and services.